createdAt,value
2023-01-20T00:04:15.993Z,40.1
2023-01-20T00:09:16.412Z,39.9
2023-01-20T00:14:17.052Z,39.9
2023-01-20T00:19:17.717Z,39.8
2023-01-20T00:24:18.320Z,39.7
2023-01-20T00:29:18.979Z,39.7
2023-01-20T00:34:19.648Z,39.6
2023-01-20T00:39:20.276Z,39.6
2023-01-20T00:44:20.875Z,39.5
2023-01-20T00:49:21.470Z,39.4
2023-01-20T00:54:22.091Z,39.4
2023-01-20T00:59:22.692Z,39.3
2023-01-20T01:04:23.257Z,39.2
2023-01-20T01:09:23.880Z,39.2
2023-01-20T01:14:24.229Z,39.1
2023-01-20T01:19:24.650Z,39.1
2023-01-20T01:24:25.206Z,39
2023-01-20T01:29:25.627Z,38.9
2023-01-20T01:34:26.038Z,38.9
2023-01-20T01:39:26.423Z,38.9
2023-01-20T01:44:26.751Z,38.8
2023-01-20T01:49:27.394Z,38.7
2023-01-20T01:54:28.212Z,38.7
2023-01-20T01:59:28.811Z,38.6
2023-01-20T02:04:29.171Z,38.6
2023-01-20T02:09:29.750Z,38.5
2023-01-20T02:14:30.325Z,38.4
2023-01-20T02:19:30.895Z,38.4
2023-01-20T02:24:31.426Z,38.4
2023-01-20T02:29:31.791Z,38.3
2023-01-20T02:34:32.377Z,38.2
2023-01-20T02:39:32.924Z,38.2
2023-01-20T02:44:33.452Z,38.1
2023-01-20T02:49:34.002Z,38.1
2023-01-20T02:54:34.583Z,38.1
2023-01-20T02:59:34.949Z,38
2023-01-20T03:04:35.234Z,37.9
2023-01-20T03:09:35.764Z,37.9
2023-01-20T03:14:36.084Z,37.9
2023-01-20T03:19:36.363Z,37.8
2023-01-20T03:24:36.844Z,37.7
2023-01-20T03:29:37.123Z,37.7
2023-01-20T03:34:37.399Z,37.7
2023-01-20T03:39:37.681Z,37.6
2023-01-20T03:44:37.948Z,37.6
2023-01-20T03:49:38.267Z,37.5
2023-01-20T03:54:38.579Z,37.4
2023-01-20T03:59:39.146Z,37.4
2023-01-20T04:04:39.420Z,37.4
2023-01-20T04:09:39.977Z,37.3
2023-01-20T04:14:40.490Z,37.2
2023-01-20T04:19:41.002Z,37.2
2023-01-20T04:24:41.273Z,37.2
2023-01-20T04:29:41.806Z,37.1
2023-01-20T04:34:42.023Z,37.1
2023-01-20T04:39:42.499Z,37.1
2023-01-20T04:44:43.009Z,37.1
2023-01-20T04:49:43.552Z,37
2023-01-20T04:54:43.812Z,36.9
2023-01-20T04:59:44.359Z,36.9
2023-01-20T05:04:44.876Z,36.9
2023-01-20T05:09:45.241Z,36.8
2023-01-20T05:14:45.841Z,36.7
2023-01-20T05:19:46.438Z,36.7
2023-01-20T05:24:46.956Z,36.7
2023-01-20T05:29:47.460Z,36.6
2023-01-20T05:34:47.734Z,36.6
2023-01-20T05:39:48.268Z,36.6
2023-01-20T05:44:48.879Z,36.5
2023-01-20T05:49:49.619Z,36.5
2023-01-20T05:54:50.130Z,36.4
2023-01-20T05:59:50.895Z,36.4
2023-01-20T06:04:51.428Z,36.4
2023-01-20T06:09:51.733Z,36.3
2023-01-20T06:14:52.491Z,36.2
2023-01-20T06:19:53.184Z,36.2
2023-01-20T06:24:53.767Z,36.2
2023-01-20T06:29:54.296Z,36.2
2023-01-20T06:34:54.805Z,36.1
2023-01-20T06:39:55.272Z,36.1
2023-01-20T06:44:55.740Z,36.1
2023-01-20T06:49:56.231Z,36
2023-01-20T06:54:56.828Z,36
2023-01-20T06:59:57.137Z,35.9
2023-01-20T07:04:57.416Z,35.9
2023-01-20T07:09:57.728Z,35.9
2023-01-20T07:14:58.087Z,35.8
2023-01-20T07:19:58.371Z,35.8
2023-01-20T07:24:58.889Z,35.7
2023-01-20T07:29:59.571Z,35.7
2023-01-20T07:35:00.119Z,35.7
2023-01-20T07:40:00.598Z,35.7
2023-01-20T07:45:01.145Z,35.6
2023-01-20T07:50:01.611Z,35.6
2023-01-20T07:55:02.109Z,35.6
2023-01-20T08:00:02.413Z,35.6
2023-01-20T08:05:02.964Z,35.5
2023-01-20T08:10:03.399Z,35.5
2023-01-20T08:15:03.913Z,35.4
2023-01-20T08:20:04.563Z,35.4
2023-01-20T08:25:05.041Z,35.4
2023-01-20T08:30:05.516Z,35.3
2023-01-20T08:35:06.055Z,35.3
2023-01-20T08:40:06.565Z,35.2
2023-01-20T08:45:07.075Z,35.2
2023-01-20T08:50:07.544Z,35.2
2023-01-20T08:55:08.127Z,35.2
2023-01-20T09:00:08.661Z,35.1
2023-01-20T09:05:09.132Z,35.1
2023-01-20T09:10:09.609Z,35.1
2023-01-20T09:15:10.152Z,35.1
2023-01-20T09:20:10.673Z,35
2023-01-20T09:25:11.234Z,35
2023-01-20T09:30:11.761Z,35
2023-01-20T09:35:12.850Z,34.9
2023-01-20T09:40:13.765Z,34.9
2023-01-20T09:45:14.508Z,34.9
2023-01-20T09:50:15.486Z,34.9
2023-01-20T09:55:16.139Z,34.8
2023-01-20T10:00:16.900Z,34.8
2023-01-20T10:05:17.514Z,34.7
2023-01-20T10:10:18.104Z,34.7
2023-01-20T11:01:05.623Z,34.4
2023-01-20T11:06:07.465Z,34.4
2023-01-20T11:26:14.615Z,34.3
2023-01-20T11:46:20.273Z,34.1
2023-01-20T11:51:22.240Z,34.1
2023-01-20T11:56:24.067Z,34.1
2023-01-20T12:01:25.892Z,34.1
2023-01-20T12:06:27.724Z,34.1
2023-01-20T12:11:32.232Z,34
2023-01-20T12:16:32.715Z,34
2023-01-20T12:21:32.950Z,34
2023-01-20T12:26:33.452Z,33.9
2023-01-20T12:31:33.683Z,33.9
2023-01-20T12:36:35.570Z,33.9
2023-01-20T12:41:35.741Z,33.9
2023-01-20T12:46:36.152Z,33.8
2023-01-20T12:51:38.270Z,33.8
2023-01-20T12:56:40.363Z,33.8
2023-01-20T13:01:42.414Z,33.7
2023-01-20T13:06:42.838Z,33.7
2023-01-20T13:11:43.249Z,33.7
2023-01-20T13:16:45.093Z,33.7
2023-01-20T13:21:54.013Z,33.7
2023-01-20T13:26:58.675Z,33.6
2023-01-20T13:32:00.932Z,33.6
2023-01-20T13:37:03.094Z,33.6
2023-01-20T13:42:04.934Z,33.6
2023-01-20T13:47:06.813Z,33.6
2023-01-20T13:52:08.753Z,33.5
2023-01-20T13:57:10.581Z,33.5
2023-01-20T14:02:12.720Z,33.4
2023-01-20T14:07:14.613Z,33.4
2023-01-20T14:12:16.690Z,33.4
2023-01-20T14:17:18.925Z,33.4
2023-01-20T14:22:21.063Z,33.4
2023-01-20T14:27:22.927Z,33.3
2023-01-20T14:32:24.998Z,33.3
2023-01-20T15:07:41.983Z,33.1
2023-01-20T15:12:44.016Z,33.1
2023-01-20T15:17:46.105Z,33.1
2023-01-20T15:22:48.143Z,33.1
2023-01-20T15:27:49.944Z,33.1
2023-01-20T15:32:51.741Z,33
2023-01-20T15:37:53.593Z,33
2023-01-20T15:42:55.664Z,33
2023-01-20T15:47:57.718Z,32.9
2023-01-20T15:52:59.599Z,32.8
2023-01-20T15:58:01.810Z,32.6
2023-01-20T16:03:03.982Z,32.6
2023-01-20T16:08:06.096Z,32.5
2023-01-20T16:13:08.142Z,32.5
2023-01-20T16:18:10.194Z,32.4
2023-01-20T16:23:12.282Z,32.4
2023-01-20T16:28:14.105Z,32.4
2023-01-20T16:33:16.143Z,32.4
2023-01-20T16:38:17.949Z,32.4
2023-01-20T16:43:19.937Z,32.4
2023-01-20T16:48:21.772Z,32.3
2023-01-20T16:53:23.659Z,32.3
2023-01-20T16:58:25.447Z,32.3
2023-01-20T17:03:27.240Z,32.4
2023-01-20T17:08:29.362Z,35.2
2023-01-20T17:13:29.852Z,37.6
2023-01-20T17:18:30.422Z,39.9
2023-01-20T17:23:31.048Z,41.1
2023-01-20T17:28:31.507Z,41.5
2023-01-20T17:33:32.337Z,42.1
2023-01-20T17:38:33.020Z,42.4
2023-01-20T17:43:33.712Z,42.4
2023-01-20T17:48:34.379Z,42.4
2023-01-20T17:53:35.079Z,42.4
2023-01-20T17:58:35.769Z,43.5
2023-01-20T18:03:36.504Z,43.7
2023-01-20T18:08:37.232Z,43.7
2023-01-20T18:13:37.935Z,43.6
2023-01-20T18:18:38.710Z,43.7
2023-01-20T18:23:39.571Z,44.6
2023-01-20T18:28:40.168Z,44.8
2023-01-20T18:33:40.994Z,45
2023-01-20T18:38:41.765Z,45
2023-01-20T18:43:42.533Z,44.9
2023-01-20T18:48:43.086Z,44.9
2023-01-20T18:53:43.612Z,44.9
2023-01-20T18:58:44.395Z,44.8
2023-01-20T19:03:45.363Z,44.8
2023-01-20T19:08:46.155Z,44.7
2023-01-20T19:13:46.932Z,44.7
2023-01-20T19:18:47.433Z,44.7
2023-01-20T19:23:47.949Z,44.7
2023-01-20T19:28:48.726Z,44.6
2023-01-20T19:33:49.238Z,44.6
2023-01-20T19:38:49.977Z,44.6
2023-01-20T19:43:50.500Z,44.5
2023-01-20T19:48:51.013Z,44.5
2023-01-20T19:53:51.932Z,44.4
2023-01-20T19:58:52.424Z,44.4
2023-01-20T20:03:53.192Z,44.4
2023-01-20T20:08:53.921Z,44.3
2023-01-20T20:13:54.652Z,44.3
2023-01-20T20:18:55.416Z,44.2
2023-01-20T20:23:56.145Z,44.2
2023-01-20T20:28:56.913Z,44.2
2023-01-20T20:33:57.674Z,44.1
2023-01-20T20:38:58.437Z,44.1
2023-01-20T20:43:59.190Z,44.1
2023-01-20T20:48:59.930Z,44
2023-01-20T20:54:00.452Z,43.9
2023-01-20T20:59:02.726Z,43.9
2023-01-20T21:04:03.752Z,43.9
2023-01-20T21:09:04.281Z,43.9
2023-01-20T21:14:05.025Z,43.8
2023-01-20T21:19:05.717Z,43.7
2023-01-20T21:24:06.459Z,43.6
2023-01-20T21:29:06.919Z,43.6
2023-01-20T21:34:07.360Z,43.5
2023-01-20T21:39:07.816Z,43.4
2023-01-20T21:44:08.499Z,43.4
2023-01-20T21:49:08.935Z,43.4
2023-01-20T21:54:09.373Z,43.3
2023-01-20T21:59:09.804Z,43.3
2023-01-20T22:04:10.290Z,43.2
2023-01-20T22:09:10.722Z,43.1
2023-01-20T22:14:11.350Z,39.7
2023-01-20T22:19:11.935Z,38.5
2023-01-20T22:24:12.559Z,38.2
2023-01-20T22:29:13.116Z,38.2
2023-01-20T22:34:13.656Z,38.1
2023-01-20T22:39:13.984Z,38
2023-01-20T22:44:14.603Z,37.9
2023-01-20T22:49:14.916Z,37.9
2023-01-20T22:54:15.424Z,37.8
2023-01-20T22:59:15.992Z,37.7
2023-01-20T23:04:16.283Z,37.7
2023-01-20T23:09:16.788Z,37.6
2023-01-20T23:14:17.066Z,37.6
2023-01-20T23:19:17.374Z,37.5
2023-01-20T23:24:17.638Z,37.5
2023-01-20T23:29:17.896Z,37.4
2023-01-20T23:34:18.130Z,37.3
2023-01-20T23:39:18.423Z,37.3
2023-01-20T23:44:19.404Z,37.2
2023-01-20T23:49:22.412Z,37.2
2023-01-20T23:54:22.775Z,37.1
2023-01-20T23:59:23.027Z,37.1
